sensor_id;sensor_type;location;lat;lon;timestamp;temperature;humidity
15983;DHT22;14442;50.196;8.096;2022-10-15T00:02:09;21.30;60.60
15983;DHT22;14442;50.196;8.096;2022-10-15T00:04:36;21.30;60.60
15983;DHT22;14442;50.196;8.096;2022-10-15T00:07:03;21.30;60.50
15983;DHT22;14442;50.196;8.096;2022-10-15T00:09:31;21.30;60.60
15983;DHT22;14442;50.196;8.096;2022-10-15T00:11:58;21.30;60.50
15983;DHT22;14442;50.196;8.096;2022-10-15T00:14:25;21.30;60.50
15983;DHT22;14442;50.196;8.096;2022-10-15T00:16:51;21.30;60.60
15983;DHT22;14442;50.196;8.096;2022-10-15T00:19:18;21.30;60.70
15983;DHT22;14442;50.196;8.096;2022-10-15T00:21:44;21.40;60.50
15983;DHT22;14442;50.196;8.096;2022-10-15T00:24:11;21.50;61.20
15983;DHT22;14442;50.196;8.096;2022-10-15T00:26:39;21.50;61.60
15983;DHT22;14442;50.196;8.096;2022-10-15T00:29:06;21.50;61.70
15983;DHT22;14442;50.196;8.096;2022-10-15T00:31:32;21.40;61.00
15983;DHT22;14442;50.196;8.096;2022-10-15T00:34:00;21.40;61.10
15983;DHT22;14442;50.196;8.096;2022-10-15T00:36:29;21.40;61.30
15983;DHT22;14442;50.196;8.096;2022-10-15T00:38:56;21.40;61.20
15983;DHT22;14442;50.196;8.096;2022-10-15T00:41:25;21.40;61.10
15983;DHT22;14442;50.196;8.096;2022-10-15T00:43:56;21.40;61.20
15983;DHT22;14442;50.196;8.096;2022-10-15T00:46:26;21.40;61.10
15983;DHT22;14442;50.196;8.096;2022-10-15T00:48:57;21.40;61.10
15983;DHT22;14442;50.196;8.096;2022-10-15T00:51:28;21.40;61.10
15983;DHT22;14442;50.196;8.096;2022-10-15T00:53:56;21.40;61.00
15983;DHT22;14442;50.196;8.096;2022-10-15T00:56:23;21.40;60.90
15983;DHT22;14442;50.196;8.096;2022-10-15T00:58:54;21.40;60.90
15983;DHT22;14442;50.196;8.096;2022-10-15T01:01:21;21.40;60.90
15983;DHT22;14442;50.196;8.096;2022-10-15T01:03:50;21.40;61.70
15983;DHT22;14442;50.196;8.096;2022-10-15T01:06:17;21.30;60.80
15983;DHT22;14442;50.196;8.096;2022-10-15T01:08:44;21.30;60.80
15983;DHT22;14442;50.196;8.096;2022-10-15T01:11:21;21.30;60.80
15983;DHT22;14442;50.196;8.096;2022-10-15T01:14:01;21.30;60.80
15983;DHT22;14442;50.196;8.096;2022-10-15T01:16:37;21.30;60.80
15983;DHT22;14442;50.196;8.096;2022-10-15T01:19:14;21.30;60.70
15983;DHT22;14442;50.196;8.096;2022-10-15T01:21:49;21.30;60.70
15983;DHT22;14442;50.196;8.096;2022-10-15T01:24:41;21.30;60.70
15983;DHT22;14442;50.196;8.096;2022-10-15T01:27:28;21.30;60.70
15983;DHT22;14442;50.196;8.096;2022-10-15T01:30:21;21.20;60.70
15983;DHT22;14442;50.196;8.096;2022-10-15T01:35:47;21.30;60.80
15983;DHT22;14442;50.196;8.096;2022-10-15T01:38:42;21.30;60.70
15983;DHT22;14442;50.196;8.096;2022-10-15T01:41:14;21.30;60.80
15983;DHT22;14442;50.196;8.096;2022-10-15T01:43:44;21.20;60.70
15983;DHT22;14442;50.196;8.096;2022-10-15T01:46:16;21.20;60.70
15983;DHT22;14442;50.196;8.096;2022-10-15T01:48:44;21.20;60.80
15983;DHT22;14442;50.196;8.096;2022-10-15T01:51:12;21.20;60.60
15983;DHT22;14442;50.196;8.096;2022-10-15T01:53:40;21.30;60.80
15983;DHT22;14442;50.196;8.096;2022-10-15T01:56:10;21.30;60.80
15983;DHT22;14442;50.196;8.096;2022-10-15T01:58:40;21.20;60.70
15983;DHT22;14442;50.196;8.096;2022-10-15T02:01:08;21.20;60.70
15983;DHT22;14442;50.196;8.096;2022-10-15T02:03:44;21.20;60.60
15983;DHT22;14442;50.196;8.096;2022-10-15T02:06:15;21.20;60.60
15983;DHT22;14442;50.196;8.096;2022-10-15T02:08:52;21.30;60.80
15983;DHT22;14442;50.196;8.096;2022-10-15T02:11:20;21.30;60.70
15983;DHT22;14442;50.196;8.096;2022-10-15T02:13:53;21.30;60.80
15983;DHT22;14442;50.196;8.096;2022-10-15T02:16:24;21.20;60.50
15983;DHT22;14442;50.196;8.096;2022-10-15T02:18:58;21.20;60.60
15983;DHT22;14442;50.196;8.096;2022-10-15T02:21:29;21.20;60.70
15983;DHT22;14442;50.196;8.096;2022-10-15T02:24:03;21.20;60.60
15983;DHT22;14442;50.196;8.096;2022-10-15T02:26:30;21.20;60.70
15983;DHT22;14442;50.196;8.096;2022-10-15T02:29:00;21.20;60.60
15983;DHT22;14442;50.196;8.096;2022-10-15T02:31:30;21.20;60.60
15983;DHT22;14442;50.196;8.096;2022-10-15T02:34:02;21.20;60.60
15983;DHT22;14442;50.196;8.096;2022-10-15T02:36:31;21.20;60.40
15983;DHT22;14442;50.196;8.096;2022-10-15T02:38:59;21.20;60.50
15983;DHT22;14442;50.196;8.096;2022-10-15T02:41:27;21.10;60.40
15983;DHT22;14442;50.196;8.096;2022-10-15T02:43:54;21.10;60.40
15983;DHT22;14442;50.196;8.096;2022-10-15T02:46:21;21.10;60.40
15983;DHT22;14442;50.196;8.096;2022-10-15T02:48:48;21.10;60.40
15983;DHT22;14442;50.196;8.096;2022-10-15T02:51:16;21.10;60.40
15983;DHT22;14442;50.196;8.096;2022-10-15T02:53:42;21.10;60.40
15983;DHT22;14442;50.196;8.096;2022-10-15T02:56:09;21.00;60.40
15983;DHT22;14442;50.196;8.096;2022-10-15T02:58:36;21.00;60.30
15983;DHT22;14442;50.196;8.096;2022-10-15T03:01:02;21.00;60.40
15983;DHT22;14442;50.196;8.096;2022-10-15T03:03:29;21.00;60.40
15983;DHT22;14442;50.196;8.096;2022-10-15T03:05:56;21.00;60.40
15983;DHT22;14442;50.196;8.096;2022-10-15T03:08:24;21.00;60.40
15983;DHT22;14442;50.196;8.096;2022-10-15T03:10:50;21.00;60.40
15983;DHT22;14442;50.196;8.096;2022-10-15T03:13:17;21.00;60.40
15983;DHT22;14442;50.196;8.096;2022-10-15T03:15:44;21.00;60.40
15983;DHT22;14442;50.196;8.096;2022-10-15T03:18:10;20.90;60.30
15983;DHT22;14442;50.196;8.096;2022-10-15T03:20:37;20.90;60.20
15983;DHT22;14442;50.196;8.096;2022-10-15T03:23:03;20.90;60.30
15983;DHT22;14442;50.196;8.096;2022-10-15T03:25:31;20.90;60.30
15983;DHT22;14442;50.196;8.096;2022-10-15T03:27:58;20.90;60.30
15983;DHT22;14442;50.196;8.096;2022-10-15T03:30:25;20.90;60.20
15983;DHT22;14442;50.196;8.096;2022-10-15T03:32:51;20.90;60.20
15983;DHT22;14442;50.196;8.096;2022-10-15T03:35:18;20.90;60.20
15983;DHT22;14442;50.196;8.096;2022-10-15T03:37:45;20.90;60.20
15983;DHT22;14442;50.196;8.096;2022-10-15T03:40:11;20.90;60.20
15983;DHT22;14442;50.196;8.096;2022-10-15T03:42:39;20.90;60.20
15983;DHT22;14442;50.196;8.096;2022-10-15T03:45:07;20.90;60.20
15983;DHT22;14442;50.196;8.096;2022-10-15T03:47:34;20.80;60.10
15983;DHT22;14442;50.196;8.096;2022-10-15T03:50:01;20.90;60.20
15983;DHT22;14442;50.196;8.096;2022-10-15T03:52:27;20.90;60.20
15983;DHT22;14442;50.196;8.096;2022-10-15T03:54:54;20.90;60.20
15983;DHT22;14442;50.196;8.096;2022-10-15T03:57:21;20.80;60.10
15983;DHT22;14442;50.196;8.096;2022-10-15T03:59:49;20.80;60.20
15983;DHT22;14442;50.196;8.096;2022-10-15T04:02:15;20.80;60.10
15983;DHT22;14442;50.196;8.096;2022-10-15T04:04:42;20.80;60.20
15983;DHT22;14442;50.196;8.096;2022-10-15T04:07:09;20.80;60.20
15983;DHT22;14442;50.196;8.096;2022-10-15T04:09:35;20.80;60.20
15983;DHT22;14442;50.196;8.096;2022-10-15T04:12:02;20.80;60.20
15983;DHT22;14442;50.196;8.096;2022-10-15T04:14:29;20.80;60.20
15983;DHT22;14442;50.196;8.096;2022-10-15T04:16:57;20.80;60.20
15983;DHT22;14442;50.196;8.096;2022-10-15T04:19:24;20.80;60.20
15983;DHT22;14442;50.196;8.096;2022-10-15T04:21:50;20.80;60.20
15983;DHT22;14442;50.196;8.096;2022-10-15T04:24:17;20.80;60.20
15983;DHT22;14442;50.196;8.096;2022-10-15T04:26:44;20.70;60.10
15983;DHT22;14442;50.196;8.096;2022-10-15T04:29:11;20.80;60.20
15983;DHT22;14442;50.196;8.096;2022-10-15T04:31:37;20.80;60.20
15983;DHT22;14442;50.196;8.096;2022-10-15T04:34:05;20.70;60.10
15983;DHT22;14442;50.196;8.096;2022-10-15T04:36:32;20.70;60.10
15983;DHT22;14442;50.196;8.096;2022-10-15T04:38:59;20.70;60.10
15983;DHT22;14442;50.196;8.096;2022-10-15T04:41:26;20.70;60.10
15983;DHT22;14442;50.196;8.096;2022-10-15T04:43:53;20.60;60.00
15983;DHT22;14442;50.196;8.096;2022-10-15T04:46:20;20.70;60.10
15983;DHT22;14442;50.196;8.096;2022-10-15T04:48:47;20.70;60.20
15983;DHT22;14442;50.196;8.096;2022-10-15T04:51:17;20.70;60.10
15983;DHT22;14442;50.196;8.096;2022-10-15T04:53:44;20.70;60.20
15983;DHT22;14442;50.196;8.096;2022-10-15T04:56:13;20.70;60.10
15983;DHT22;14442;50.196;8.096;2022-10-15T04:58:42;20.70;60.20
15983;DHT22;14442;50.196;8.096;2022-10-15T05:01:11;20.70;60.20
15983;DHT22;14442;50.196;8.096;2022-10-15T05:03:38;20.70;60.20
15983;DHT22;14442;50.196;8.096;2022-10-15T05:06:07;20.60;60.10
15983;DHT22;14442;50.196;8.096;2022-10-15T05:08:36;20.70;60.40
15983;DHT22;14442;50.196;8.096;2022-10-15T05:11:08;20.70;60.90
15983;DHT22;14442;50.196;8.096;2022-10-15T05:13:35;20.70;60.20
15983;DHT22;14442;50.196;8.096;2022-10-15T05:16:08;20.60;60.10
15983;DHT22;14442;50.196;8.096;2022-10-15T05:18:35;20.60;60.10
15983;DHT22;14442;50.196;8.096;2022-10-15T05:21:03;20.60;60.10
15983;DHT22;14442;50.196;8.096;2022-10-15T05:23:30;20.60;60.10
15983;DHT22;14442;50.196;8.096;2022-10-15T05:25:59;20.60;60.10
15983;DHT22;14442;50.196;8.096;2022-10-15T05:28:26;20.60;60.10
15983;DHT22;14442;50.196;8.096;2022-10-15T05:30:53;20.70;60.20
15983;DHT22;14442;50.196;8.096;2022-10-15T05:33:19;20.60;60.10
15983;DHT22;14442;50.196;8.096;2022-10-15T05:35:46;20.70;60.20
15983;DHT22;14442;50.196;8.096;2022-10-15T05:38:13;20.60;60.10
15983;DHT22;14442;50.196;8.096;2022-10-15T05:40:39;20.60;60.10
15983;DHT22;14442;50.196;8.096;2022-10-15T05:43:07;20.60;60.10
15983;DHT22;14442;50.196;8.096;2022-10-15T05:45:34;20.60;60.10
15983;DHT22;14442;50.196;8.096;2022-10-15T05:48:01;20.60;60.10
15983;DHT22;14442;50.196;8.096;2022-10-15T05:50:27;20.60;60.80
15983;DHT22;14442;50.196;8.096;2022-10-15T05:52:54;20.60;60.10
15983;DHT22;14442;50.196;8.096;2022-10-15T05:55:21;20.60;60.10
15983;DHT22;14442;50.196;8.096;2022-10-15T05:57:48;20.50;60.00
15983;DHT22;14442;50.196;8.096;2022-10-15T06:00:16;20.60;60.20
15983;DHT22;14442;50.196;8.096;2022-10-15T06:02:43;20.60;60.10
15983;DHT22;14442;50.196;8.096;2022-10-15T06:05:09;20.60;60.10
15983;DHT22;14442;50.196;8.096;2022-10-15T06:07:36;20.60;60.10
15983;DHT22;14442;50.196;8.096;2022-10-15T06:10:03;20.50;60.00
15983;DHT22;14442;50.196;8.096;2022-10-15T06:12:30;20.50;60.00
15983;DHT22;14442;50.196;8.096;2022-10-15T06:14:57;20.50;60.00
15983;DHT22;14442;50.196;8.096;2022-10-15T06:17:25;20.50;60.00
15983;DHT22;14442;50.196;8.096;2022-10-15T06:19:51;20.50;60.00
15983;DHT22;14442;50.196;8.096;2022-10-15T06:22:18;20.50;60.00
15983;DHT22;14442;50.196;8.096;2022-10-15T06:24:45;20.50;60.00
15983;DHT22;14442;50.196;8.096;2022-10-15T06:27:11;20.50;60.00
15983;DHT22;14442;50.196;8.096;2022-10-15T06:29:38;20.50;60.10
15983;DHT22;14442;50.196;8.096;2022-10-15T06:32:08;20.50;60.00
15983;DHT22;14442;50.196;8.096;2022-10-15T06:34:36;20.50;60.00
15983;DHT22;14442;50.196;8.096;2022-10-15T06:37:03;20.50;60.00
15983;DHT22;14442;50.196;8.096;2022-10-15T06:39:29;20.50;60.00
15983;DHT22;14442;50.196;8.096;2022-10-15T06:41:56;20.50;60.00
15983;DHT22;14442;50.196;8.096;2022-10-15T06:44:23;20.50;60.00
15983;DHT22;14442;50.196;8.096;2022-10-15T06:46:49;20.50;60.00
15983;DHT22;14442;50.196;8.096;2022-10-15T06:49:16;20.50;60.00
15983;DHT22;14442;50.196;8.096;2022-10-15T06:51:44;20.50;60.00
15983;DHT22;14442;50.196;8.096;2022-10-15T06:54:11;20.50;60.00
15983;DHT22;14442;50.196;8.096;2022-10-15T06:56:37;20.50;60.00
15983;DHT22;14442;50.196;8.096;2022-10-15T06:59:04;20.50;60.00
15983;DHT22;14442;50.196;8.096;2022-10-15T07:01:31;20.50;60.00
15983;DHT22;14442;50.196;8.096;2022-10-15T07:03:57;20.50;60.00
15983;DHT22;14442;50.196;8.096;2022-10-15T07:06:24;20.40;59.90
15983;DHT22;14442;50.196;8.096;2022-10-15T07:08:52;20.50;60.00
15983;DHT22;14442;50.196;8.096;2022-10-15T07:11:19;20.50;60.00
15983;DHT22;14442;50.196;8.096;2022-10-15T07:13:45;20.50;60.00
15983;DHT22;14442;50.196;8.096;2022-10-15T07:16:12;20.50;60.00
15983;DHT22;14442;50.196;8.096;2022-10-15T07:18:39;20.50;60.00
15983;DHT22;14442;50.196;8.096;2022-10-15T07:21:06;20.50;60.00
15983;DHT22;14442;50.196;8.096;2022-10-15T07:23:33;20.50;60.00
15983;DHT22;14442;50.196;8.096;2022-10-15T07:26:01;20.40;59.90
15983;DHT22;14442;50.196;8.096;2022-10-15T07:28:28;20.50;60.00
15983;DHT22;14442;50.196;8.096;2022-10-15T07:30:59;20.50;60.00
15983;DHT22;14442;50.196;8.096;2022-10-15T07:33:26;20.40;60.00
15983;DHT22;14442;50.196;8.096;2022-10-15T07:35:53;20.50;60.00
15983;DHT22;14442;50.196;8.096;2022-10-15T07:38:19;20.50;60.00
15983;DHT22;14442;50.196;8.096;2022-10-15T07:40:46;20.50;60.00
15983;DHT22;14442;50.196;8.096;2022-10-15T07:43:14;20.50;60.00
15983;DHT22;14442;50.196;8.096;2022-10-15T07:45:46;20.50;60.00
15983;DHT22;14442;50.196;8.096;2022-10-15T07:48:12;20.50;60.00
15983;DHT22;14442;50.196;8.096;2022-10-15T07:50:39;20.50;60.00
15983;DHT22;14442;50.196;8.096;2022-10-15T07:53:06;20.40;60.00
15983;DHT22;14442;50.196;8.096;2022-10-15T07:55:32;20.40;60.00
15983;DHT22;14442;50.196;8.096;2022-10-15T07:57:59;20.50;60.00
15983;DHT22;14442;50.196;8.096;2022-10-15T08:00:27;20.40;60.00
15983;DHT22;14442;50.196;8.096;2022-10-15T08:02:54;20.40;60.00
15983;DHT22;14442;50.196;8.096;2022-10-15T08:05:20;20.40;60.00
15983;DHT22;14442;50.196;8.096;2022-10-15T08:07:47;20.50;60.00
15983;DHT22;14442;50.196;8.096;2022-10-15T08:10:14;20.50;60.00
15983;DHT22;14442;50.196;8.096;2022-10-15T08:12:40;20.50;60.20
15983;DHT22;14442;50.196;8.096;2022-10-15T08:15:08;20.60;60.50
15983;DHT22;14442;50.196;8.096;2022-10-15T08:17:36;20.70;60.70
15983;DHT22;14442;50.196;8.096;2022-10-15T08:20:03;20.70;60.70
15983;DHT22;14442;50.196;8.096;2022-10-15T08:22:30;20.60;60.50
15983;DHT22;14442;50.196;8.096;2022-10-15T08:24:58;20.60;60.40
15983;DHT22;14442;50.196;8.096;2022-10-15T08:27:25;20.60;60.50
15983;DHT22;14442;50.196;8.096;2022-10-15T08:29:51;20.60;60.60
15983;DHT22;14442;50.196;8.096;2022-10-15T08:32:18;20.70;60.90
15983;DHT22;14442;50.196;8.096;2022-10-15T08:34:46;20.70;60.90
15983;DHT22;14442;50.196;8.096;2022-10-15T08:37:13;20.80;61.00
15983;DHT22;14442;50.196;8.096;2022-10-15T08:39:39;20.80;61.00
15983;DHT22;14442;50.196;8.096;2022-10-15T08:42:14;20.80;61.50
15983;DHT22;14442;50.196;8.096;2022-10-15T08:44:45;20.80;61.30
15983;DHT22;14442;50.196;8.096;2022-10-15T08:47:22;20.80;61.40
15983;DHT22;14442;50.196;8.096;2022-10-15T08:49:55;20.90;62.10
15983;DHT22;14442;50.196;8.096;2022-10-15T08:52:24;20.90;62.80
15983;DHT22;14442;50.196;8.096;2022-10-15T08:54:52;21.00;63.60
15983;DHT22;14442;50.196;8.096;2022-10-15T08:57:33;21.00;64.00
15983;DHT22;14442;50.196;8.096;2022-10-15T09:00:07;21.00;63.80
15983;DHT22;14442;50.196;8.096;2022-10-15T09:02:41;21.00;63.60
15983;DHT22;14442;50.196;8.096;2022-10-15T09:05:23;21.00;63.40
15983;DHT22;14442;50.196;8.096;2022-10-15T09:07:55;21.00;63.10
15983;DHT22;14442;50.196;8.096;2022-10-15T09:10:29;20.90;63.20
15983;DHT22;14442;50.196;8.096;2022-10-15T09:13:00;20.90;62.60
15983;DHT22;14442;50.196;8.096;2022-10-15T09:15:33;20.90;62.50
15983;DHT22;14442;50.196;8.096;2022-10-15T09:18:03;20.90;62.20
15983;DHT22;14442;50.196;8.096;2022-10-15T09:20:33;20.90;62.20
15983;DHT22;14442;50.196;8.096;2022-10-15T09:23:00;20.80;62.00
15983;DHT22;14442;50.196;8.096;2022-10-15T09:25:33;20.90;62.00
15983;DHT22;14442;50.196;8.096;2022-10-15T09:28:06;20.90;62.00
15983;DHT22;14442;50.196;8.096;2022-10-15T09:30:38;21.00;62.10
15983;DHT22;14442;50.196;8.096;2022-10-15T09:33:12;20.90;62.10
15983;DHT22;14442;50.196;8.096;2022-10-15T09:35:46;20.90;62.10
15983;DHT22;14442;50.196;8.096;2022-10-15T09:38:24;20.90;62.10
15983;DHT22;14442;50.196;8.096;2022-10-15T09:41:02;21.00;62.40
15983;DHT22;14442;50.196;8.096;2022-10-15T09:43:36;21.00;62.30
15983;DHT22;14442;50.196;8.096;2022-10-15T09:46:05;21.00;62.30
15983;DHT22;14442;50.196;8.096;2022-10-15T09:48:35;21.00;62.20
15983;DHT22;14442;50.196;8.096;2022-10-15T09:51:11;21.00;62.10
15983;DHT22;14442;50.196;8.096;2022-10-15T09:53:47;21.00;62.10
15983;DHT22;14442;50.196;8.096;2022-10-15T09:56:20;21.00;62.10
15983;DHT22;14442;50.196;8.096;2022-10-15T09:58:52;21.00;62.00
15983;DHT22;14442;50.196;8.096;2022-10-15T10:01:20;21.00;62.10
15983;DHT22;14442;50.196;8.096;2022-10-15T10:03:51;21.10;62.70
15983;DHT22;14442;50.196;8.096;2022-10-15T10:06:20;21.10;62.70
15983;DHT22;14442;50.196;8.096;2022-10-15T10:08:50;21.10;62.60
15983;DHT22;14442;50.196;8.096;2022-10-15T10:11:17;21.00;62.60
15983;DHT22;14442;50.196;8.096;2022-10-15T10:13:49;21.00;62.40
15983;DHT22;14442;50.196;8.096;2022-10-15T10:16:18;21.00;62.50
15983;DHT22;14442;50.196;8.096;2022-10-15T10:19:01;21.00;62.70
15983;DHT22;14442;50.196;8.096;2022-10-15T10:21:31;21.00;62.60
15983;DHT22;14442;50.196;8.096;2022-10-15T10:24:19;21.10;63.40
15983;DHT22;14442;50.196;8.096;2022-10-15T10:26:46;21.00;62.60
15983;DHT22;14442;50.196;8.096;2022-10-15T10:29:18;21.10;62.60
15983;DHT22;14442;50.196;8.096;2022-10-15T10:31:46;21.00;63.00
15983;DHT22;14442;50.196;8.096;2022-10-15T10:34:21;21.10;62.70
15983;DHT22;14442;50.196;8.096;2022-10-15T10:36:53;21.10;62.60
15983;DHT22;14442;50.196;8.096;2022-10-15T10:39:24;21.00;62.30
15983;DHT22;14442;50.196;8.096;2022-10-15T10:41:53;21.00;62.20
15983;DHT22;14442;50.196;8.096;2022-10-15T10:44:26;21.00;62.30
15983;DHT22;14442;50.196;8.096;2022-10-15T10:47:18;21.00;62.20
15983;DHT22;14442;50.196;8.096;2022-10-15T10:49:47;21.00;62.40
15983;DHT22;14442;50.196;8.096;2022-10-15T10:52:26;21.00;62.20
15983;DHT22;14442;50.196;8.096;2022-10-15T10:55:04;21.00;62.50
15983;DHT22;14442;50.196;8.096;2022-10-15T10:57:41;21.10;62.60
15983;DHT22;14442;50.196;8.096;2022-10-15T11:00:14;21.10;62.40
15983;DHT22;14442;50.196;8.096;2022-10-15T11:02:41;21.10;62.50
15983;DHT22;14442;50.196;8.096;2022-10-15T11:05:09;21.10;62.40
15983;DHT22;14442;50.196;8.096;2022-10-15T11:07:43;21.00;62.10
15983;DHT22;14442;50.196;8.096;2022-10-15T11:10:18;21.10;62.60
15983;DHT22;14442;50.196;8.096;2022-10-15T11:12:53;21.10;62.60
15983;DHT22;14442;50.196;8.096;2022-10-15T11:15:30;21.20;62.60
15983;DHT22;14442;50.196;8.096;2022-10-15T11:18:20;21.20;62.50
15983;DHT22;14442;50.196;8.096;2022-10-15T11:20:56;21.10;62.40
15983;DHT22;14442;50.196;8.096;2022-10-15T11:23:37;21.10;62.70
15983;DHT22;14442;50.196;8.096;2022-10-15T11:26:22;21.20;62.70
15983;DHT22;14442;50.196;8.096;2022-10-15T11:28:59;21.20;62.40
15983;DHT22;14442;50.196;8.096;2022-10-15T11:31:33;21.20;62.90
15983;DHT22;14442;50.196;8.096;2022-10-15T11:34:12;21.30;63.30
15983;DHT22;14442;50.196;8.096;2022-10-15T11:36:55;21.20;62.40
15983;DHT22;14442;50.196;8.096;2022-10-15T11:39:34;21.20;62.40
15983;DHT22;14442;50.196;8.096;2022-10-15T11:42:10;21.10;62.50
15983;DHT22;14442;50.196;8.096;2022-10-15T11:44:55;21.10;62.50
15983;DHT22;14442;50.196;8.096;2022-10-15T11:47:35;21.10;62.40
15983;DHT22;14442;50.196;8.096;2022-10-15T11:50:14;21.10;62.50
15983;DHT22;14442;50.196;8.096;2022-10-15T11:52:51;21.10;62.10
15983;DHT22;14442;50.196;8.096;2022-10-15T11:55:24;21.00;62.10
15983;DHT22;14442;50.196;8.096;2022-10-15T11:57:57;21.00;62.20
15983;DHT22;14442;50.196;8.096;2022-10-15T12:00:30;21.10;62.70
15983;DHT22;14442;50.196;8.096;2022-10-15T12:03:01;21.10;62.10
15983;DHT22;14442;50.196;8.096;2022-10-15T12:05:34;21.10;62.40
15983;DHT22;14442;50.196;8.096;2022-10-15T12:08:03;21.10;62.30
15983;DHT22;14442;50.196;8.096;2022-10-15T12:10:50;21.10;62.40
15983;DHT22;14442;50.196;8.096;2022-10-15T12:13:25;21.10;62.50
15983;DHT22;14442;50.196;8.096;2022-10-15T12:16:03;21.10;62.50
15983;DHT22;14442;50.196;8.096;2022-10-15T12:18:36;21.10;62.60
15983;DHT22;14442;50.196;8.096;2022-10-15T12:21:31;21.10;62.20
15983;DHT22;14442;50.196;8.096;2022-10-15T12:23:59;21.00;62.50
15983;DHT22;14442;50.196;8.096;2022-10-15T12:26:29;21.00;62.20
15983;DHT22;14442;50.196;8.096;2022-10-15T12:28:58;21.00;62.30
15983;DHT22;14442;50.196;8.096;2022-10-15T12:31:42;21.00;62.40
15983;DHT22;14442;50.196;8.096;2022-10-15T12:34:28;21.10;62.20
15983;DHT22;14442;50.196;8.096;2022-10-15T12:37:00;21.00;62.10
15983;DHT22;14442;50.196;8.096;2022-10-15T12:39:28;21.00;62.30
15983;DHT22;14442;50.196;8.096;2022-10-15T12:41:57;21.00;62.30
15983;DHT22;14442;50.196;8.096;2022-10-15T12:44:26;20.90;62.10
15983;DHT22;14442;50.196;8.096;2022-10-15T12:46:54;21.00;62.30
15983;DHT22;14442;50.196;8.096;2022-10-15T12:49:59;21.00;62.30
15983;DHT22;14442;50.196;8.096;2022-10-15T12:52:52;20.90;62.20
15983;DHT22;14442;50.196;8.096;2022-10-15T12:55:31;20.90;62.20
15983;DHT22;14442;50.196;8.096;2022-10-15T12:58:33;20.90;62.10
15983;DHT22;14442;50.196;8.096;2022-10-15T13:01:04;20.90;62.10
15983;DHT22;14442;50.196;8.096;2022-10-15T13:03:37;20.90;62.10
15983;DHT22;14442;50.196;8.096;2022-10-15T13:06:13;20.90;62.10
15983;DHT22;14442;50.196;8.096;2022-10-15T13:08:43;20.90;62.00
15983;DHT22;14442;50.196;8.096;2022-10-15T13:11:19;20.90;62.10
15983;DHT22;14442;50.196;8.096;2022-10-15T13:13:49;20.90;62.00
15983;DHT22;14442;50.196;8.096;2022-10-15T13:16:16;20.90;62.00
15983;DHT22;14442;50.196;8.096;2022-10-15T13:18:48;20.90;62.00
15983;DHT22;14442;50.196;8.096;2022-10-15T13:21:16;20.90;62.10
15983;DHT22;14442;50.196;8.096;2022-10-15T13:23:47;20.90;62.00
15983;DHT22;14442;50.196;8.096;2022-10-15T13:26:19;20.90;62.10
15983;DHT22;14442;50.196;8.096;2022-10-15T13:28:48;20.80;62.10
15983;DHT22;14442;50.196;8.096;2022-10-15T13:31:21;20.90;62.10
15983;DHT22;14442;50.196;8.096;2022-10-15T13:33:51;20.80;61.90
15983;DHT22;14442;50.196;8.096;2022-10-15T13:36:22;20.80;61.90
15983;DHT22;14442;50.196;8.096;2022-10-15T13:38:55;20.90;62.00
15983;DHT22;14442;50.196;8.096;2022-10-15T13:41:27;20.80;62.00
15983;DHT22;14442;50.196;8.096;2022-10-15T13:43:56;20.80;61.90
15983;DHT22;14442;50.196;8.096;2022-10-15T13:46:26;20.90;62.00
15983;DHT22;14442;50.196;8.096;2022-10-15T13:48:58;20.90;62.70
15983;DHT22;14442;50.196;8.096;2022-10-15T13:51:30;20.80;61.80
15983;DHT22;14442;50.196;8.096;2022-10-15T13:53:59;20.80;61.80
15983;DHT22;14442;50.196;8.096;2022-10-15T13:56:27;20.80;61.90
15983;DHT22;14442;50.196;8.096;2022-10-15T13:58:57;20.80;61.90
15983;DHT22;14442;50.196;8.096;2022-10-15T14:01:25;20.80;61.90
15983;DHT22;14442;50.196;8.096;2022-10-15T14:03:53;20.80;61.90
15983;DHT22;14442;50.196;8.096;2022-10-15T14:06:23;20.80;61.80
15983;DHT22;14442;50.196;8.096;2022-10-15T14:08:51;20.80;61.90
15983;DHT22;14442;50.196;8.096;2022-10-15T14:11:19;20.80;61.90
15983;DHT22;14442;50.196;8.096;2022-10-15T14:13:47;20.80;61.90
15983;DHT22;14442;50.196;8.096;2022-10-15T14:16:20;20.80;61.90
15983;DHT22;14442;50.196;8.096;2022-10-15T14:18:50;20.80;62.00
15983;DHT22;14442;50.196;8.096;2022-10-15T14:21:20;20.80;61.90
15983;DHT22;14442;50.196;8.096;2022-10-15T14:24:02;20.80;61.90
15983;DHT22;14442;50.196;8.096;2022-10-15T14:26:31;20.80;61.90
15983;DHT22;14442;50.196;8.096;2022-10-15T14:28:59;20.80;61.90
15983;DHT22;14442;50.196;8.096;2022-10-15T14:31:36;20.80;61.90
15983;DHT22;14442;50.196;8.096;2022-10-15T14:34:03;20.80;61.90
15983;DHT22;14442;50.196;8.096;2022-10-15T14:36:39;20.80;61.90
15983;DHT22;14442;50.196;8.096;2022-10-15T14:39:27;20.80;61.90
15983;DHT22;14442;50.196;8.096;2022-10-15T14:41:55;20.80;61.80
15983;DHT22;14442;50.196;8.096;2022-10-15T14:44:22;20.80;61.90
15983;DHT22;14442;50.196;8.096;2022-10-15T14:46:52;20.80;61.90
15983;DHT22;14442;50.196;8.096;2022-10-15T14:49:27;20.80;61.90
15983;DHT22;14442;50.196;8.096;2022-10-15T14:51:57;20.80;61.80
15983;DHT22;14442;50.196;8.096;2022-10-15T14:54:32;20.80;61.80
15983;DHT22;14442;50.196;8.096;2022-10-15T14:57:00;20.80;61.70
15983;DHT22;14442;50.196;8.096;2022-10-15T14:59:33;20.80;61.80
15983;DHT22;14442;50.196;8.096;2022-10-15T15:02:04;20.80;61.80
15983;DHT22;14442;50.196;8.096;2022-10-15T15:04:35;20.90;61.80
15983;DHT22;14442;50.196;8.096;2022-10-15T15:07:09;20.90;62.30
15983;DHT22;14442;50.196;8.096;2022-10-15T15:09:36;20.90;62.10
15983;DHT22;14442;50.196;8.096;2022-10-15T15:12:04;20.80;62.20
15983;DHT22;14442;50.196;8.096;2022-10-15T15:14:31;20.90;62.40
15983;DHT22;14442;50.196;8.096;2022-10-15T15:16:58;20.80;62.10
15983;DHT22;14442;50.196;8.096;2022-10-15T15:19:26;20.80;62.00
15983;DHT22;14442;50.196;8.096;2022-10-15T15:21:53;20.80;62.00
15983;DHT22;14442;50.196;8.096;2022-10-15T15:24:20;20.80;62.00
15983;DHT22;14442;50.196;8.096;2022-10-15T15:26:47;20.80;62.00
15983;DHT22;14442;50.196;8.096;2022-10-15T15:29:13;20.90;62.20
15983;DHT22;14442;50.196;8.096;2022-10-15T15:31:40;20.90;62.10
15983;DHT22;14442;50.196;8.096;2022-10-15T15:34:08;20.80;62.00
15983;DHT22;14442;50.196;8.096;2022-10-15T15:36:36;20.80;62.00
15983;DHT22;14442;50.196;8.096;2022-10-15T15:39:02;20.80;62.10
15983;DHT22;14442;50.196;8.096;2022-10-15T15:41:29;20.80;62.10
15983;DHT22;14442;50.196;8.096;2022-10-15T15:43:58;20.80;62.00
15983;DHT22;14442;50.196;8.096;2022-10-15T15:46:24;20.80;61.90
15983;DHT22;14442;50.196;8.096;2022-10-15T15:48:51;20.80;61.90
15983;DHT22;14442;50.196;8.096;2022-10-15T15:51:20;20.80;62.00
15983;DHT22;14442;50.196;8.096;2022-10-15T15:53:50;20.80;62.20